Time;durP1;ratioP1;P1;durP2;ratioP2;P2;SDS_P1;SDS_P2;PMS_P1;PMS_P2;Temp;Humidity;BMP_temperature;BMP_pressure;BME280_temperature;BME280_humidity;BME280_pressure;Samples;Min_cycle;Max_cycle;Signal;HPM_P1;HPM_P2
2022/08/11 00:00:21;;;;;;;7.80;5.30;;;;;;;17.62;85.07;99852.34;108825;1277;138594;-72
2022/08/11 00:02:50;;;;;;;7.90;6.00;;;;;;;17.62;85.17;99839.30;108941;1277;22516;-71
2022/08/11 00:05:19;;;;;;;5.90;5.40;;;;;;;17.59;85.27;99825.02;108704;1281;23330;-71
2022/08/11 00:07:55;;;;;;;5.80;5.20;;;;;;;17.56;85.33;99825.33;108916;1277;138865;-71
2022/08/11 00:10:24;;;;;;;11.20;5.70;;;;;;;17.54;85.38;99831.64;108897;1280;23354;-71
2022/08/11 00:12:52;;;;;;;6.60;4.90;;;;;;;17.52;85.52;99835.84;108694;1280;138434;-71
2022/08/11 00:15:19;;;;;;;8.90;5.20;;;;;;;17.52;85.54;99840.26;108864;1277;23138;-71
2022/08/11 00:17:46;;;;;;;10.80;5.30;;;;;;;17.53;85.53;99844.92;108556;1280;139165;-71
2022/08/11 00:20:13;;;;;;;6.90;5.60;;;;;;;17.52;85.46;99850.34;108832;1280;23238;-71
2022/08/11 00:22:46;;;;;;;9.70;5.30;;;;;;;17.53;85.49;99852.64;108981;1277;22494;-71
2022/08/11 00:25:15;;;;;;;5.90;4.90;;;;;;;17.53;85.53;99854.96;108980;1277;137810;-71
2022/08/11 00:27:42;;;;;;;6.30;5.00;;;;;;;17.53;85.59;99856.71;109007;1278;22672;-71
2022/08/11 00:30:10;;;;;;;6.60;4.80;;;;;;;17.55;85.62;99854.93;108817;1277;138218;-72
2022/08/11 00:32:37;;;;;;;6.60;4.60;;;;;;;17.56;85.61;99857.35;109056;1277;22594;-71
2022/08/11 00:35:06;;;;;;;5.90;4.60;;;;;;;17.55;85.61;99855.81;108081;1277;23074;-71
2022/08/11 00:37:53;;;;;;;6.70;4.80;;;;;;;17.55;85.66;99856.48;104455;1281;138234;-69
2022/08/11 00:40:41;;;;;;;5.70;4.70;;;;;;;17.54;85.45;99856.33;104873;1275;26659;-69
2022/08/11 00:43:21;;;;;;;5.80;4.70;;;;;;;17.54;85.49;99856.38;104745;1274;137569;-69
2022/08/11 00:46:20;;;;;;;7.90;4.40;;;;;;;17.55;85.46;99859.11;104877;1274;22561;-69
2022/08/11 00:49:15;;;;;;;6.10;5.50;;;;;;;17.55;85.51;99857.14;104819;1277;138271;-69
2022/08/11 00:51:52;;;;;;;5.10;4.40;;;;;;;17.53;85.28;99855.29;104803;1274;22551;-69
2022/08/11 00:54:37;;;;;;;6.30;5.10;;;;;;;17.53;85.37;99851.98;104781;1274;138514;-69
2022/08/11 00:57:21;;;;;;;7.30;5.20;;;;;;;17.52;85.28;99854.52;104758;1277;22722;-69
2022/08/11 01:00:12;;;;;;;9.10;5.10;;;;;;;17.50;85.29;99850.64;104668;1277;138396;-69
2022/08/11 01:03:04;;;;;;;5.70;5.10;;;;;;;17.49;85.32;99845.24;104967;1274;22721;-69
2022/08/11 01:05:48;;;;;;;6.00;4.90;;;;;;;17.49;85.23;99844.81;105034;1274;24262;-69
2022/08/11 01:08:36;;;;;;;5.20;4.70;;;;;;;17.45;85.38;99841.61;104658;1274;22849;-69
2022/08/11 01:11:14;;;;;;;5.00;4.60;;;;;;;17.42;85.35;99845.19;104948;1274;25436;-69
2022/08/11 01:13:47;;;;;;;8.00;4.90;;;;;;;17.40;85.42;99838.60;104788;1274;138171;-69
2022/08/11 01:16:30;;;;;;;5.40;4.50;;;;;;;17.38;85.60;99838.35;104829;1277;23004;-69
2022/08/11 01:19:09;;;;;;;5.80;5.10;;;;;;;17.37;85.62;99835.39;104918;1274;138364;-69
2022/08/11 01:21:55;;;;;;;7.10;4.70;;;;;;;17.35;85.74;99838.16;104853;1274;22607;-69
2022/08/11 01:24:58;;;;;;;6.40;4.70;;;;;;;17.33;85.78;99835.48;104809;1274;138509;-68
2022/08/11 01:27:46;;;;;;;7.90;5.20;;;;;;;17.31;85.82;99835.62;104378;1283;22875;-68
2022/08/11 01:30:18;;;;;;;5.60;4.50;;;;;;;17.29;86.05;99834.39;104354;1281;139038;-68
2022/08/11 01:33:23;;;;;;;6.20;4.60;;;;;;;17.28;85.99;99834.13;104685;1281;22596;-68
2022/08/11 01:36:21;;;;;;;8.60;5.60;;;;;;;17.26;86.23;99838.77;104724;1282;138651;-69
2022/08/11 01:39:26;;;;;;;7.40;4.80;;;;;;;17.26;86.33;99835.41;104799;1281;22815;-69
2022/08/11 01:45:21;;;;;;;5.30;4.80;;;;;;;17.24;86.08;99832.02;104378;1283;22621;-69
2022/08/11 01:48:03;;;;;;;5.30;4.40;;;;;;;17.24;86.30;99828.38;108487;1281;138372;-70
2022/08/11 01:50:53;;;;;;;5.10;4.60;;;;;;;17.24;86.26;99823.77;108697;1280;22438;-72
2022/08/11 01:53:36;;;;;;;6.90;5.60;;;;;;;17.25;86.33;99819.79;108646;1281;22539;-70
2022/08/11 01:56:20;;;;;;;9.80;5.50;;;;;;;17.24;86.28;99818.70;108534;1281;138476;-70
2022/08/11 01:59:09;;;;;;;8.70;4.80;;;;;;;17.23;86.33;99814.79;108558;1283;22494;-70
2022/08/11 02:01:57;;;;;;;5.30;4.80;;;;;;;17.23;86.44;99814.68;108281;1281;139073;-70
2022/08/11 02:04:25;;;;;;;;;;;;;;;17.25;86.51;99815.05;108880;1274;23289;-70
2022/08/11 02:07:10;;;;;;;8.20;5.20;;;;;;;17.25;86.41;99812.95;109162;1274;125634;-70
2022/08/11 02:09:44;;;;;;;9.20;5.70;;;;;;;17.25;86.41;99809.88;109314;1274;22462;-70
2022/08/11 02:12:26;;;;;;;5.80;5.10;;;;;;;17.26;86.47;99805.23;109100;1276;138452;-70
2022/08/11 02:15:28;;;;;;;5.30;4.80;;;;;;;17.27;86.45;99805.66;109264;1276;22384;-70
2022/08/11 02:18:12;;;;;;;6.00;5.00;;;;;;;17.27;86.38;99807.81;108504;1281;139731;-70
2022/08/11 02:23:52;;;;;;;8.00;5.20;;;;;;;17.24;86.60;99811.04;108623;1281;164457;-70
2022/08/11 02:26:42;;;;;;;5.50;5.00;;;;;;;17.22;86.72;99815.41;106034;1281;25397;-68
2022/08/11 02:29:18;;;;;;;5.40;4.90;;;;;;;17.21;86.72;99814.10;104347;1280;22596;-69
2022/08/11 02:34:55;;;;;;;5.90;5.00;;;;;;;17.17;86.93;99811.23;108744;1281;22476;-69
2022/08/11 02:37:35;;;;;;;5.60;5.00;;;;;;;17.13;87.00;99809.86;108498;1281;137945;-69
2022/08/11 02:40:21;;;;;;;8.10;5.00;;;;;;;17.10;87.25;99806.37;108558;1282;22571;-69
2022/08/11 02:42:54;;;;;;;6.50;5.00;;;;;;;17.07;87.50;99808.22;108703;1281;138894;-69
2022/08/11 02:45:45;;;;;;;7.60;5.30;;;;;;;17.06;87.58;99809.05;108609;1281;22458;-69
2022/08/11 02:51:52;;;;;;;6.80;5.80;;;;;;;16.98;87.98;99801.39;107996;1285;22973;-69
2022/08/11 02:54:24;;;;;;;6.90;5.40;;;;;;;16.95;88.11;99803.63;108195;1281;138309;-69
2022/08/11 02:57:09;;;;;;;9.70;5.20;;;;;;;16.93;88.26;99798.41;108538;1281;22893;-69
2022/08/11 02:59:49;;;;;;;7.90;5.50;;;;;;;16.92;88.34;99799.30;108524;1281;22431;-69
2022/08/11 03:02:29;;;;;;;11.60;6.00;;;;;;;16.91;88.52;99797.77;108595;1280;22496;-69
2022/08/11 03:05:10;;;;;;;6.30;5.70;;;;;;;16.90;88.64;99802.69;108567;1281;22434;-69
2022/08/11 03:07:55;;;;;;;9.30;6.00;;;;;;;16.90;88.85;99807.86;108439;1282;139922;-70
2022/08/11 03:10:27;;;;;;;6.00;5.40;;;;;;;16.90;88.96;99801.70;108486;1282;23325;-70
2022/08/11 03:19:06;;;;;;;7.30;5.50;;;;;;;16.92;89.19;99805.86;108374;1281;138686;-69
2022/08/11 03:21:39;;;;;;;10.30;6.20;;;;;;;16.90;89.31;99805.15;108524;1280;23340;-69
2022/08/11 03:24:42;;;;;;;6.50;5.70;;;;;;;16.91;89.32;99803.71;108370;1281;138822;-69
2022/08/11 03:27:21;;;;;;;6.40;5.80;;;;;;;16.91;89.72;99801.52;108542;1274;22508;-69
2022/08/11 03:30:09;;;;;;;10.30;6.40;;;;;;;16.92;89.78;99800.73;109131;1275;139968;-69
2022/08/11 03:32:35;;;;;;;7.10;6.30;;;;;;;16.93;89.88;99804.70;109389;1274;22758;-69
2022/08/11 03:35:03;;;;;;;9.00;6.20;;;;;;;16.93;89.93;99804.48;109308;1274;22559;-69
2022/08/11 03:37:49;;;;;;;7.40;6.70;;;;;;;16.93;90.00;99803.64;109150;1274;137846;-69
2022/08/11 03:43:19;;;;;;;8.00;6.20;;;;;;;16.94;89.92;99806.66;109331;1274;138450;-69
2022/08/11 03:45:55;;;;;;;9.40;5.90;;;;;;;16.95;89.98;99811.89;109311;1274;22457;-69
2022/08/11 03:48:28;;;;;;;7.00;6.30;;;;;;;16.95;89.97;99822.08;109251;1274;138627;-69
2022/08/11 03:51:30;;;;;;;7.90;6.50;;;;;;;16.95;89.96;99823.66;109223;1274;22337;-69
2022/08/11 03:54:57;;;;;;;6.60;6.00;;;;;;;16.96;89.95;99834.66;109281;1274;139192;-69
2022/08/11 03:58:00;;;;;;;14.60;6.40;;;;;;;16.97;89.83;99826.23;109184;1274;22577;-69
2022/08/11 04:00:36;;;;;;;7.40;6.10;;;;;;;16.96;89.70;99820.02;109145;1274;138760;-69
2022/08/11 04:03:06;;;;;;;7.20;6.50;;;;;;;16.95;89.75;99812.16;109318;1275;24156;-69
2022/08/11 04:05:49;;;;;;;11.40;6.20;;;;;;;16.95;89.83;99799.89;109390;1274;23270;-70
2022/08/11 04:08:31;;;;;;;6.70;6.00;;;;;;;16.95;89.77;99794.70;109278;1274;22443;-69
2022/08/11 04:11:15;;;;;;;6.80;5.70;;;;;;;16.95;89.77;99788.75;109410;1274;22639;-69
2022/08/11 04:17:32;;;;;;;8.70;6.80;;;;;;;16.94;89.73;99803.69;109239;1274;22531;-69
2022/08/11 04:20:41;;;;;;;10.20;7.00;;;;;;;16.93;89.69;99796.88;109209;1274;138195;-69
2022/08/11 04:23:23;;;;;;;7.50;6.50;;;;;;;16.93;89.85;99793.14;109352;1273;23331;-69
2022/08/11 04:26:37;;;;;;;6.40;5.80;;;;;;;16.90;89.95;99793.60;109132;1274;22450;-70
2022/08/11 04:29:23;;;;;;;6.50;5.90;;;;;;;16.86;90.11;99791.73;109359;1274;23219;-70
2022/08/11 04:32:37;;;;;;;7.60;6.50;;;;;;;16.85;90.30;99796.44;109077;1274;138768;-70
2022/08/11 04:35:18;;;;;;;12.60;6.70;;;;;;;16.84;90.28;99789.11;109380;1274;22893;-70
2022/08/11 04:38:31;;;;;;;7.40;6.20;;;;;;;16.84;90.29;99794.40;109256;1274;140204;-69
2022/08/11 04:41:31;;;;;;;7.30;5.80;;;;;;;16.84;90.53;99775.19;109072;1273;22453;-70
2022/08/11 04:44:26;;;;;;;6.80;6.20;;;;;;;16.84;90.60;99769.09;109051;1277;139499;-71
2022/08/11 04:47:12;;;;;;;8.60;7.00;;;;;;;16.84;90.67;99761.71;109134;1276;22536;-70
2022/08/11 05:02:27;;;;;;;14.60;7.00;;;;;;;16.85;91.35;99735.45;109244;1274;138392;-70
2022/08/11 05:05:31;;;;;;;9.50;7.30;;;;;;;16.86;91.23;99733.73;109380;1274;23341;-70
2022/08/11 05:08:07;;;;;;;14.80;7.20;;;;;;;16.87;91.33;99735.65;109042;1276;138090;-69
2022/08/11 05:11:11;;;;;;;9.10;8.20;;;;;;;16.87;91.33;99753.70;109323;1274;22450;-71
2022/08/11 05:36:56;;;;;;;8.40;7.40;;;;;;;16.80;91.97;99805.11;109208;1274;138472;-71
2022/08/11 05:56:58;;;;;;;10.90;7.70;;;;;;;16.92;92.10;99824.30;109389;1274;22602;-72
2022/08/11 05:59:27;;;;;;;9.30;7.40;;;;;;;16.92;91.99;99815.11;109228;1276;22455;-72
2022/08/11 06:02:02;;;;;;;10.00;8.50;;;;;;;16.92;91.89;99804.37;109039;1276;138229;-72
2022/08/11 06:04:29;;;;;;;14.70;7.90;;;;;;;16.90;91.61;99797.79;109205;1274;23364;-72
2022/08/11 06:06:59;;;;;;;8.40;7.30;;;;;;;16.87;91.63;99795.85;105944;1277;139441;-71
2022/08/11 06:09:27;;;;;;;9.70;8.70;;;;;;;16.85;91.55;99796.82;105027;1274;24450;-71
2022/08/11 06:11:57;;;;;;;10.20;7.90;;;;;;;16.85;91.87;99789.94;104873;1274;137985;-70
2022/08/11 06:14:24;;;;;;;8.90;7.90;;;;;;;16.86;92.05;99789.15;109249;1274;22480;-72
2022/08/11 06:16:54;;;;;;;9.30;8.40;;;;;;;16.87;92.20;99796.02;109286;1274;23411;-69
2022/08/11 06:19:22;;;;;;;10.10;8.00;;;;;;;16.89;92.24;99803.73;109170;1274;138536;-72
2022/08/11 06:21:50;;;;;;;8.60;7.70;;;;;;;16.89;92.32;99818.54;109233;1276;22522;-71
2022/08/11 06:24:18;;;;;;;9.20;8.10;;;;;;;16.91;92.36;99833.61;109234;1274;138069;-72
2022/08/11 06:26:49;;;;;;;10.90;7.80;;;;;;;16.94;92.53;99846.36;109355;1274;22462;-72
2022/08/11 06:29:39;;;;;;;8.80;7.80;;;;;;;16.98;92.48;99856.52;109409;1274;22542;-72
2022/08/11 06:32:18;;;;;;;11.20;7.80;;;;;;;16.99;92.38;99861.12;109173;1274;22437;-72
2022/08/11 06:35:00;;;;;;;11.60;6.80;;;;;;;17.01;92.18;99863.09;109370;1274;22537;-72
2022/08/11 06:37:43;;;;;;;10.60;8.20;;;;;;;17.04;92.12;99854.66;109148;1274;138476;-72
2022/08/11 06:40:15;;;;;;;7.50;6.80;;;;;;;17.09;92.25;99849.77;109377;1274;22529;-70
2022/08/11 06:42:47;;;;;;;8.40;7.60;;;;;;;17.13;92.25;99847.20;109242;1274;137974;-70
2022/08/11 06:45:30;;;;;;;12.60;8.00;;;;;;;17.18;92.17;99844.59;109155;1276;22554;-70
2022/08/11 06:47:59;;;;;;;9.90;7.30;;;;;;;17.22;91.65;99843.33;109006;1276;139505;-70
2022/08/11 06:53:11;;;;;;;9.00;6.90;;;;;;;17.27;91.25;99855.66;109335;1274;23306;-69
2022/08/11 07:01:55;;;;;;;9.90;8.30;;;;;;;17.38;90.96;99867.82;108431;1281;139110;-70
2022/08/11 07:04:43;;;;;;;8.30;7.30;;;;;;;17.39;90.76;99864.50;108542;1282;22309;-70
2022/08/11 07:16:17;;;;;;;11.10;8.10;;;;;;;17.47;90.03;99868.73;108524;1281;22445;-70
2022/08/11 07:30:17;;;;;;;9.30;7.80;;;;;;;17.51;90.59;99854.48;108371;1282;139047;-71
2022/08/11 07:32:49;;;;;;;10.10;8.00;;;;;;;17.50;90.72;99847.21;108932;1275;22580;-70
2022/08/11 07:35:18;;;;;;;9.20;7.60;;;;;;;17.50;90.89;99833.73;109403;1274;22469;-70
2022/08/11 07:37:50;;;;;;;11.20;7.80;;;;;;;17.51;91.00;99827.48;109132;1274;140312;-70
2022/08/11 07:40:27;;;;;;;10.10;7.30;;;;;;;17.51;91.36;99816.17;109280;1277;22479;-71
2022/08/11 07:42:54;;;;;;;8.90;7.80;;;;;;;17.51;91.48;99820.05;109048;1276;138406;-68
2022/08/11 07:53:38;;;;;;;9.30;6.60;;;;;;;17.55;92.04;99812.05;109241;1276;22542;-69
2022/08/11 07:56:23;;;;;;;8.50;7.70;;;;;;;17.58;92.02;99826.95;109302;1274;22994;-69
2022/08/11 08:31:29;;;;;;;8.90;5.90;;;;;;;18.00;90.36;99831.50;104702;1276;138777;-66
2022/08/11 08:33:56;;;;;;;10.30;6.10;;;;;;;18.00;90.36;99832.31;105000;1274;22753;-67
2022/08/11 08:36:22;;;;;;;8.30;6.20;;;;;;;18.03;90.21;99831.52;104443;1277;139739;-66
2022/08/11 08:38:52;;;;;;;8.20;5.60;;;;;;;18.04;90.18;99837.64;104755;1276;22630;-66
2022/08/11 08:41:22;;;;;;;6.00;5.20;;;;;;;18.06;90.12;99835.95;109213;1274;23220;-67
2022/08/11 08:43:51;;;;;;;6.70;5.50;;;;;;;18.08;90.04;99828.38;109096;1277;139287;-66
2022/08/11 08:46:21;;;;;;;12.10;4.90;;;;;;;18.10;89.96;99823.89;109034;1274;22591;-66
2022/08/11 08:48:47;;;;;;;6.10;5.30;;;;;;;18.13;89.79;99827.27;109037;1274;139259;-66
2022/08/11 08:51:33;;;;;;;4.60;4.10;;;;;;;18.16;89.82;99830.81;109217;1274;22572;-67
2022/08/11 08:54:22;;;;;;;9.70;4.60;;;;;;;18.18;89.48;99808.27;108972;1274;138195;-67
2022/08/11 08:56:50;;;;;;;4.40;3.90;;;;;;;18.18;89.29;99810.63;108972;1277;22478;-68
2022/08/11 08:59:20;;;;;;;4.30;3.90;;;;;;;18.21;89.39;99832.37;109122;1277;22477;-67
2022/08/11 09:01:59;;;;;;;4.70;3.70;;;;;;;18.23;89.14;99826.77;109037;1276;139915;-67
2022/08/11 09:04:27;;;;;;;4.80;3.90;;;;;;;18.23;88.98;99825.66;109062;1276;23181;-67
2022/08/11 09:06:55;;;;;;;6.50;4.80;;;;;;;18.22;89.09;99819.15;108871;1277;139541;-66
2022/08/11 09:09:22;;;;;;;4.80;4.20;;;;;;;18.24;89.20;99818.70;109134;1275;23479;-66
2022/08/11 09:11:49;;;;;;;4.60;4.10;;;;;;;18.25;89.33;99822.48;109023;1274;139743;-66
2022/08/11 09:41:43;;;;;;;5.80;5.30;;;;;;;18.41;88.71;99841.64;104137;1279;138187;-66
2022/08/11 09:44:48;;;;;;;7.10;5.70;;;;;;;18.41;88.86;99845.84;104391;1279;22648;-67
2022/08/11 09:47:22;;;;;;;6.10;5.60;;;;;;;18.44;88.91;99839.16;104430;1279;23038;-67
2022/08/11 09:49:58;;;;;;;6.60;6.00;;;;;;;18.47;88.76;99836.83;108590;1282;140400;-67
2022/08/11 09:52:26;;;;;;;6.40;5.20;;;;;;;18.50;88.68;99833.73;108707;1279;23443;-67
2022/08/11 09:54:53;;;;;;;7.60;5.40;;;;;;;18.52;88.52;99827.36;108450;1282;138838;-67
2022/08/11 10:00:08;;;;;;;8.40;6.10;;;;;;;18.59;88.38;99833.13;108579;1279;139260;-67
2022/08/11 10:02:42;;;;;;;8.20;6.70;;;;;;;18.62;88.12;99831.02;108677;1279;23237;-68
2022/08/11 10:07:55;;;;;;;6.40;5.90;;;;;;;18.71;88.00;99828.45;104326;1280;138065;-67
2022/08/11 10:10:22;;;;;;;6.10;5.50;;;;;;;18.79;88.01;99831.38;104236;1282;22577;-67
2022/08/11 10:12:58;;;;;;;9.80;6.40;;;;;;;18.84;87.62;99832.45;106102;1279;137948;-67
2022/08/11 12:29:31;;;;;;;8.40;6.20;;;;;;;22.18;76.77;99789.74;100571;1314;22631;-68
2022/08/11 12:36:57;;;;;;;8.00;7.20;;;;;;;22.22;76.76;99790.08;108403;1283;137965;-68
2022/08/11 12:45:28;;;;;;;8.00;7.30;;;;;;;22.19;76.71;99789.25;108423;1282;22448;-69
2022/08/11 12:54:32;;;;;;;8.30;7.60;;;;;;;22.21;77.26;99796.23;108481;1284;137539;-67
2022/08/11 13:05:44;;;;;;;8.50;7.60;;;;;;;22.22;77.54;99793.02;108479;1282;139372;-68
2022/08/11 13:08:14;;;;;;;8.00;6.60;;;;;;;22.21;77.83;99787.98;108689;1283;22552;-69
2022/08/11 13:13:28;;;;;;;18.90;9.00;;;;;;;22.16;78.01;99784.74;108425;1283;137890;-68
2022/08/11 13:16:15;;;;;;;12.60;7.30;;;;;;;22.13;78.22;99790.77;108530;1284;22456;-67
2022/08/11 13:18:42;;;;;;;8.80;7.60;;;;;;;22.10;78.40;99793.13;108223;1284;137864;-68
2022/08/11 13:21:09;;;;;;;8.30;7.50;;;;;;;22.08;78.69;99791.52;109328;1274;22672;-68
2022/08/11 13:23:37;;;;;;;8.20;7.40;;;;;;;22.07;78.78;99786.40;109247;1277;23183;-68
2022/08/11 13:26:04;;;;;;;9.40;7.50;;;;;;;22.06;78.82;99787.90;109082;1276;137836;-68
2022/08/11 13:28:31;;;;;;;7.90;7.20;;;;;;;22.08;78.96;99787.46;109227;1275;22497;-68
2022/08/11 13:43:36;;;;;;;48.90;13.20;;;;;;;22.44;78.32;99792.33;101612;1313;557569;-65
2022/08/11 13:46:20;;;;;;;10.00;7.60;;;;;;;22.51;77.73;99791.45;102530;1291;1385641;-65
2022/08/11 13:48:47;;;;;;;11.10;8.30;;;;;;;22.50;77.67;99789.19;103958;1290;139908;-66
2022/08/11 13:51:30;;;;;;;9.30;8.50;;;;;;;22.48;77.52;99786.70;103828;1289;24322;-65
2022/08/11 13:54:08;;;;;;;10.60;8.10;;;;;;;22.47;77.68;99786.02;107840;1288;138015;-65
2022/08/11 13:56:38;;;;;;;9.60;8.20;;;;;;;22.48;78.11;99782.59;108078;1287;22460;-65
2022/08/11 13:59:07;;;;;;;9.20;8.20;;;;;;;22.52;78.23;99782.66;108016;1287;22493;-66
2022/08/11 14:01:38;;;;;;;8.90;8.00;;;;;;;22.57;78.24;99786.06;107775;1288;137421;-66
2022/08/11 14:04:29;;;;;;;9.40;8.50;;;;;;;22.62;78.27;99784.77;107717;1287;22482;-65
2022/08/11 14:06:59;;;;;;;26.30;9.70;;;;;;;22.67;77.48;99786.02;107914;1288;139023;-59
2022/08/11 14:09:27;;;;;;;11.10;9.00;;;;;;;22.71;76.86;99781.66;107714;1287;22454;-59
2022/08/11 14:14:53;;;;;;;11.10;8.90;;;;;;;22.82;75.53;99786.29;108015;1289;23452;-59
2022/08/11 14:17:20;;;;;;;12.60;8.70;;;;;;;22.87;75.28;99784.67;107640;1289;22471;-59
2022/08/11 14:20:07;;;;;;;12.50;9.40;;;;;;;22.91;74.80;99783.59;107866;1288;138490;-60
2022/08/11 14:22:55;;;;;;;12.40;9.60;;;;;;;22.94;74.32;99781.06;107829;1287;22495;-59
2022/08/11 14:25:22;;;;;;;12.50;9.70;;;;;;;22.94;73.88;99780.20;107808;1287;137948;-60
2022/08/11 14:28:09;;;;;;;10.60;9.50;;;;;;;22.94;73.67;99775.02;107950;1289;22572;-60
2022/08/11 14:30:56;;;;;;;11.20;9.60;;;;;;;22.97;73.52;99778.41;107707;1289;138022;-61
2022/08/11 14:33:27;;;;;;;12.10;10.40;;;;;;;23.01;73.48;99772.09;108541;1283;22496;-61
2022/08/11 14:36:14;;;;;;;11.40;9.90;;;;;;;23.07;73.48;99771.23;108397;1281;139430;-61
2022/08/11 14:38:41;;;;;;;11.00;9.00;;;;;;;23.13;73.86;99766.83;108652;1282;23350;-60
2022/08/11 14:49:26;;;;;;;10.60;7.90;;;;;;;23.37;73.93;99767.30;108354;1282;139502;-61
2022/08/11 14:51:56;;;;;;;10.00;9.10;;;;;;;23.41;73.79;99769.94;108516;1283;22418;-60
2022/08/11 14:57:09;;;;;;;28.60;10.60;;;;;;;23.47;72.98;99767.11;108531;1283;23612;-60
2022/08/11 14:59:36;;;;;;;9.40;8.50;;;;;;;23.47;72.78;99766.30;108514;1283;22543;-60
2022/08/11 15:04:49;;;;;;;15.20;9.30;;;;;;;23.43;72.67;99761.67;108561;1281;22444;-60
2022/08/11 15:07:16;;;;;;;11.40;10.10;;;;;;;23.40;72.60;99766.95;108493;1281;138448;-60
2022/08/11 15:09:43;;;;;;;10.20;9.10;;;;;;;23.36;72.29;99767.75;108401;1281;22531;-59
2022/08/11 15:12:30;;;;;;;13.10;9.40;;;;;;;23.27;72.49;99766.77;108257;1283;139361;-60
2022/08/11 15:17:46;;;;;;;12.80;9.20;;;;;;;23.16;73.02;99768.94;108564;1282;23225;-60
2022/08/11 15:25:50;;;;;;;10.60;8.50;;;;;;;22.92;73.80;99771.95;108512;1281;138896;-59
2022/08/11 15:46:01;;;;;;;25.60;11.70;;;;;;;22.82;75.57;99768.84;107861;1289;22555;-60
2022/08/11 15:48:34;;;;;;;11.70;9.70;;;;;;;22.83;75.37;99767.76;107801;1287;138761;-60
2022/08/11 15:51:41;;;;;;;10.60;9.30;;;;;;;22.84;75.38;99768.02;107902;1286;23304;-60
2022/08/11 15:54:16;;;;;;;10.80;9.70;;;;;;;22.83;75.43;99766.97;107751;1286;138696;-60
2022/08/11 15:56:48;;;;;;;11.30;10.30;;;;;;;22.83;75.70;99763.86;107988;1288;22481;-60
2022/08/11 16:04:57;;;;;;;13.00;10.10;;;;;;;22.86;75.77;99761.38;108101;1286;22487;-63
2022/08/11 16:07:29;;;;;;;10.20;9.20;;;;;;;22.87;75.76;99758.23;108114;1286;139326;-60
2022/08/11 16:10:09;;;;;;;9.80;8.90;;;;;;;22.87;75.85;99757.94;108135;1283;22496;-59
2022/08/11 16:18:21;;;;;;;19.90;9.80;;;;;;;22.85;76.23;99761.11;108387;1283;138726;-57
2022/08/11 16:20:51;;;;;;;11.90;9.30;;;;;;;22.85;76.15;99758.73;108553;1282;22642;-56
2022/08/11 16:23:17;;;;;;;11.20;9.00;;;;;;;22.87;76.25;99757.90;108211;1283;23197;-63
2022/08/11 16:25:44;;;;;;;10.10;9.10;;;;;;;22.88;76.23;99759.08;108395;1283;138680;-64
2022/08/11 16:28:31;;;;;;;10.80;9.70;;;;;;;22.88;76.33;99758.06;108575;1282;22455;-57
2022/08/11 16:30:58;;;;;;;10.90;9.70;;;;;;;22.88;76.34;99764.63;108337;1283;138663;-62
2022/08/11 16:33:25;;;;;;;13.40;9.60;;;;;;;22.86;76.26;99761.14;108537;1281;22728;-60
2022/08/11 16:38:57;;;;;;;9.60;8.30;;;;;;;22.83;76.47;99762.10;108195;1283;22487;-60
2022/08/11 16:47:05;;;;;;;10.80;9.40;;;;;;;22.76;76.92;99767.95;108456;1283;23207;-60
2022/08/11 16:49:37;;;;;;;11.10;8.80;;;;;;;22.74;77.06;99772.83;108390;1283;139539;-61
2022/08/11 16:52:06;;;;;;;13.50;8.80;;;;;;;22.72;77.15;99771.56;108501;1281;23697;-60
2022/08/11 16:54:33;;;;;;;11.90;8.70;;;;;;;22.70;77.52;99770.33;108279;1283;138375;-60
2022/08/11 16:59:13;;;;;;;11.20;8.80;;;;;;;22.66;77.74;99769.79;108462;1281;23560;-59
2022/08/11 16:59:50;;;;;;;9.90;8.90;;;;;;;22.61;77.78;99772.43;108418;1283;22459;-61
2022/08/11 17:13:51;;;;;;;13.70;9.70;;;;;;;22.41;79.07;99779.03;108509;1281;138946;-60
2022/08/11 17:16:21;;;;;;;10.70;9.70;;;;;;;22.38;79.21;99777.67;108453;1283;23119;-60
2022/08/11 17:19:04;;;;;;;13.70;9.30;;;;;;;22.35;79.44;99779.30;108367;1282;139242;-61
2022/08/11 17:21:36;;;;;;;10.60;8.30;;;;;;;22.32;79.64;99782.50;108373;1283;22485;-61
2022/08/11 17:24:05;;;;;;;10.30;9.20;;;;;;;22.29;79.75;99783.02;108423;1283;139740;-61
2022/08/11 17:26:57;;;;;;;10.10;9.20;;;;;;;22.26;80.04;99782.89;108435;1283;23288;-59
2022/08/11 17:29:40;;;;;;;11.70;9.30;;;;;;;22.24;80.15;99779.45;108305;1283;22452;-60
2022/08/11 17:35:33;;;;;;;10.00;9.00;;;;;;;22.17;80.53;99778.05;108453;1283;22480;-60
2022/08/11 17:38:08;;;;;;;10.10;8.70;;;;;;;22.15;80.69;99776.55;108319;1283;138200;-60
2022/08/11 17:40:37;;;;;;;12.80;9.80;;;;;;;22.12;80.86;99778.47;108799;1283;23235;-60
2022/08/11 17:48:42;;;;;;;10.10;9.10;;;;;;;22.09;81.24;99781.79;108370;1283;140533;-60
2022/08/11 17:59:50;;;;;;;11.60;9.50;;;;;;;22.08;81.35;99784.38;108362;1282;22691;-60
2022/08/11 17:59:51;;;;;;;10.20;9.20;;;;;;;22.05;81.70;99787.50;108226;1284;24656;-61
2022/08/11 18:05:25;;;;;;;12.20;9.50;;;;;;;22.05;81.96;99795.11;108453;1283;22418;-61
